Time;durP1;ratioP1;P1;durP2;ratioP2;P2;SDS_P1;SDS_P2;PMS_P1;PMS_P2;Temp;Humidity;BMP_temperature;BMP_pressure;BME280_temperature;BME280_humidity;BME280_pressure;Samples;Min_cycle;Max_cycle;Signal;HPM_P1;HPM_P2
2022/11/25 00:01:16;;;;;;;14.27;2.90;;;7.90;99.90;;;;;;5049914;28;20197;-68
2022/11/25 00:03:43;;;;;;;10.80;3.53;;;7.90;99.90;;;;;;5050525;28;20045;-69
2022/11/25 00:06:13;;;;;;;10.98;2.85;;;7.90;99.90;;;;;;5051176;28;20047;-67
2022/11/25 00:08:40;;;;;;;11.48;3.42;;;7.90;99.90;;;;;;5051633;28;20374;-69
2022/11/25 00:11:06;;;;;;;11.20;3.35;;;7.90;99.90;;;;;;5051433;28;20029;-67
2022/11/25 00:13:32;;;;;;;13.02;3.05;;;8.00;99.90;;;;;;5051307;28;20040;-67
2022/11/25 00:16:09;;;;;;;9.57;3.20;;;7.90;99.90;;;;;;5050970;28;20036;-68
2022/11/25 00:18:34;;;;;;;12.82;3.38;;;8.00;99.90;;;;;;5051527;28;20088;-68
2022/11/25 00:21:08;;;;;;;10.90;3.20;;;8.00;99.90;;;;;;5051271;28;20064;-67
2022/11/25 00:23:35;;;;;;;13.27;3.13;;;8.00;99.90;;;;;;5051146;28;20045;-68
2022/11/25 00:26:15;;;;;;;9.88;2.92;;;8.00;99.90;;;;;;5050590;28;20156;-67
2022/11/25 00:28:42;;;;;;;11.45;3.45;;;8.10;99.90;;;;;;5050087;28;20437;-67
2022/11/25 00:31:11;;;;;;;9.23;3.03;;;8.10;99.90;;;;;;5033165;28;20482;-67
2022/11/25 00:33:38;;;;;;;8.00;2.88;;;8.10;99.90;;;;;;5051098;28;20033;-68
2022/11/25 00:36:05;;;;;;;15.02;3.28;;;8.10;99.90;;;;;;5050570;28;20037;-68
2022/11/25 00:38:31;;;;;;;13.20;3.55;;;8.10;99.90;;;;;;5049996;28;20114;-69
2022/11/25 00:46:26;;;;;;;13.10;2.92;;;8.20;99.90;;;;;;5050799;28;20124;-68
2022/11/25 00:48:51;;;;;;;10.50;2.72;;;8.20;99.90;;;;;;5050897;28;20549;-69
2022/11/25 00:51:17;;;;;;;10.05;2.47;;;8.20;99.90;;;;;;5050964;28;20064;-67
2022/11/25 00:53:43;;;;;;;10.57;2.83;;;8.20;99.90;;;;;;5050464;28;20547;-68
2022/11/25 00:56:14;;;;;;;18.25;3.85;;;8.20;99.90;;;;;;5050701;28;20094;-68
2022/11/25 00:58:41;;;;;;;8.57;2.88;;;8.20;99.90;;;;;;5050880;28;20440;-68
2022/11/25 01:01:07;;;;;;;10.30;2.90;;;8.20;99.90;;;;;;5050737;28;20551;-68
2022/11/25 01:03:35;;;;;;;10.15;2.95;;;8.20;99.90;;;;;;5050411;28;20041;-68
2022/11/25 01:06:02;;;;;;;11.38;2.92;;;8.20;99.90;;;;;;5050007;28;20394;-68
2022/11/25 01:08:29;;;;;;;9.63;2.63;;;8.20;99.90;;;;;;5066046;28;20063;-68
2022/11/25 01:11:03;;;;;;;7.50;3.22;;;8.20;99.90;;;;;;5070776;28;20392;-67
2022/11/25 01:13:29;;;;;;;11.45;2.65;;;8.20;99.90;;;;;;5070334;28;20044;-68
2022/11/25 01:15:54;;;;;;;15.27;3.10;;;8.20;99.90;;;;;;5069874;28;20123;-67
2022/11/25 01:18:20;;;;;;;7.82;3.13;;;8.20;99.90;;;;;;5070559;28;20451;-68
2022/11/25 01:20:46;;;;;;;15.48;2.72;;;8.20;99.90;;;;;;5070396;28;20041;-67
2022/11/25 01:23:11;;;;;;;4.45;2.47;;;8.20;99.90;;;;;;5052214;28;20052;-68
2022/11/25 01:25:40;;;;;;;8.98;2.38;;;8.20;99.90;;;;;;5069952;28;20044;-67
2022/11/25 01:28:06;;;;;;;9.10;2.67;;;8.30;99.90;;;;;;5070729;28;20037;-67
2022/11/25 01:30:31;;;;;;;7.93;2.38;;;8.30;99.90;;;;;;5070618;28;20040;-67
2022/11/25 01:32:57;;;;;;;9.73;2.42;;;8.30;99.90;;;;;;5070566;28;20032;-68
2022/11/25 01:35:23;;;;;;;18.08;3.28;;;8.40;99.90;;;;;;5069445;28;20048;-67
2022/11/25 01:37:48;;;;;;;11.43;2.65;;;8.40;99.90;;;;;;5070622;28;20041;-68
2022/11/25 01:40:14;;;;;;;6.20;2.70;;;8.40;99.90;;;;;;5070307;28;20072;-67
2022/11/25 01:42:47;;;;;;;15.55;2.83;;;8.50;99.90;;;;;;5070555;28;20040;-67
2022/11/25 01:45:31;;;;;;;;;;;8.50;99.90;;;;;;5070098;28;20040;-68
2022/11/25 01:48:01;;;;;;;9.55;2.60;;;8.60;99.90;;;;;;5070625;28;19920;-68
2022/11/25 01:50:29;;;;;;;11.60;2.88;;;8.60;99.90;;;;;;5070454;28;20047;-68
2022/11/25 01:52:55;;;;;;;10.18;2.72;;;8.60;99.90;;;;;;5070111;28;20043;-68
2022/11/25 01:55:25;;;;;;;9.55;2.40;;;8.60;99.90;;;;;;5069141;28;20068;-68
2022/11/25 01:58:00;;;;;;;9.98;2.88;;;8.60;99.90;;;;;;5070146;28;20051;-68
2022/11/25 02:00:25;;;;;;;10.15;2.72;;;8.50;99.90;;;;;;5070122;28;20453;-66
2022/11/25 02:02:54;;;;;;;9.93;3.72;;;8.60;99.90;;;;;;5070248;28;20084;-68
2022/11/25 02:05:24;;;;;;;13.32;2.70;;;8.50;99.90;;;;;;5069342;28;20076;-68
2022/11/25 02:07:52;;;;;;;7.75;2.63;;;8.50;99.90;;;;;;5052201;28;20072;-69
2022/11/25 02:10:28;;;;;;;14.68;3.00;;;8.50;99.90;;;;;;5070138;28;20036;-68
2022/11/25 02:12:54;;;;;;;14.50;2.80;;;8.50;99.90;;;;;;5070184;28;20060;-67
2022/11/25 02:15:21;;;;;;;8.70;2.30;;;8.40;99.90;;;;;;5070346;28;20522;-68
2022/11/25 02:17:46;;;;;;;13.68;3.42;;;8.40;99.90;;;;;;5072393;28;20396;-71
2022/11/25 02:20:18;;;;;;;15.50;3.83;;;8.40;99.90;;;;;;5074041;28;20036;-69
2022/11/25 02:23:08;;;;;;;13.07;3.63;;;8.40;99.90;;;;;;5073566;28;20037;-69
2022/11/25 02:25:36;;;;;;;13.85;3.90;;;8.40;99.90;;;;;;5072979;28;20310;-68
2022/11/25 02:28:06;;;;;;;14.57;3.97;;;8.30;99.90;;;;;;5073398;28;20040;-67
2022/11/25 02:30:33;;;;;;;7.80;2.70;;;8.30;99.90;;;;;;5072015;28;20048;-66
2022/11/25 02:32:59;;;;;;;16.80;3.50;;;8.40;99.90;;;;;;5073384;28;20037;-66
2022/11/25 02:35:36;;;;;;;10.68;3.85;;;8.30;99.90;;;;;;5072321;28;20548;-66
2022/11/25 02:38:07;;;;;;;10.07;2.97;;;8.30;99.90;;;;;;5073243;28;20036;-66
2022/11/25 02:40:42;;;;;;;17.23;3.28;;;8.30;99.90;;;;;;5073438;28;20048;-65
2022/11/25 02:43:08;;;;;;;9.88;3.35;;;8.30;99.90;;;;;;5073359;28;20075;-66
2022/11/25 02:46:00;;;;;;;16.00;3.50;;;8.30;99.90;;;;;;5072232;28;20442;-66
2022/11/25 02:48:28;;;;;;;13.00;3.07;;;8.30;99.90;;;;;;5065702;28;20045;-66
2022/11/25 02:50:54;;;;;;;9.35;3.00;;;8.40;99.90;;;;;;5073299;28;20128;-65
2022/11/25 02:53:20;;;;;;;10.55;3.10;;;8.30;99.90;;;;;;5073261;28;20064;-66
2022/11/25 02:55:46;;;;;;;11.18;3.17;;;8.30;99.90;;;;;;5072430;28;20872;-65
2022/11/25 02:58:12;;;;;;;7.80;3.05;;;8.30;99.90;;;;;;5072731;28;20048;-66
2022/11/25 03:00:38;;;;;;;10.20;2.80;;;8.30;99.90;;;;;;5072708;28;20036;-66
2022/11/25 03:03:04;;;;;;;14.77;2.97;;;8.30;99.90;;;;;;5072786;28;20516;-65
2022/11/25 03:05:30;;;;;;;8.93;3.00;;;8.30;99.90;;;;;;5072100;28;20033;-65
2022/11/25 03:07:55;;;;;;;10.82;3.72;;;8.30;99.90;;;;;;5072723;28;20037;-66
2022/11/25 03:10:21;;;;;;;8.70;3.33;;;8.30;99.90;;;;;;5072941;28;20054;-66
2022/11/25 03:12:47;;;;;;;13.73;3.20;;;8.30;99.90;;;;;;5072617;28;20116;-68
2022/11/25 03:15:13;;;;;;;9.48;2.78;;;8.30;99.90;;;;;;5072016;28;20044;-68
2022/11/25 03:17:39;;;;;;;15.77;3.78;;;8.30;99.90;;;;;;5072622;28;20097;-67
2022/11/25 03:20:06;;;;;;;12.02;2.83;;;8.40;99.90;;;;;;5072682;28;20182;-69
2022/11/25 03:22:32;;;;;;;13.45;2.42;;;8.40;99.90;;;;;;5054322;28;20087;-70
2022/11/25 03:24:57;;;;;;;9.85;2.88;;;8.30;99.90;;;;;;5070074;28;20163;-70
2022/11/25 03:27:23;;;;;;;10.93;3.20;;;8.30;99.90;;;;;;5070941;28;20185;-69
2022/11/25 03:29:48;;;;;;;14.70;3.33;;;8.30;99.90;;;;;;5072268;28;20040;-69
2022/11/25 03:32:14;;;;;;;9.70;3.38;;;8.30;99.90;;;;;;5072478;28;20095;-68
2022/11/25 03:34:40;;;;;;;9.10;2.45;;;8.30;99.90;;;;;;5071574;28;20044;-67
2022/11/25 03:37:05;;;;;;;10.30;3.30;;;8.30;99.90;;;;;;5072133;28;20515;-66
2022/11/25 03:39:31;;;;;;;14.20;2.88;;;8.30;99.90;;;;;;5053985;28;20174;-66
2022/11/25 03:41:57;;;;;;;11.35;2.90;;;8.30;99.90;;;;;;5072008;28;20036;-66
2022/11/25 03:44:22;;;;;;;16.25;3.03;;;8.30;99.90;;;;;;5069615;28;20051;-66
2022/11/25 03:46:48;;;;;;;13.27;3.78;;;8.30;99.90;;;;;;5071970;28;20076;-66
2022/11/25 03:49:13;;;;;;;18.02;3.70;;;8.30;99.90;;;;;;5071855;28;20036;-66
2022/11/25 03:51:39;;;;;;;15.70;4.35;;;8.30;99.90;;;;;;5071989;28;20043;-66
2022/11/25 03:54:04;;;;;;;8.90;3.28;;;8.30;99.90;;;;;;5071259;28;20040;-66
2022/11/25 03:56:30;;;;;;;11.55;3.42;;;8.30;99.90;;;;;;5071776;28;20040;-66
2022/11/25 03:58:56;;;;;;;14.63;4.57;;;8.30;99.90;;;;;;5071654;28;20037;-66
2022/11/25 04:01:21;;;;;;;13.85;4.25;;;8.30;99.90;;;;;;5071894;28;20032;-65
2022/11/25 04:03:47;;;;;;;12.73;3.50;;;8.30;99.90;;;;;;5071048;28;20045;-66
2022/11/25 04:06:12;;;;;;;6.18;2.67;;;8.40;99.90;;;;;;5071307;28;20044;-66
2022/11/25 04:08:38;;;;;;;13.48;3.30;;;8.40;99.90;;;;;;5071791;28;20111;-65
2022/11/25 04:11:04;;;;;;;12.73;4.30;;;8.40;99.90;;;;;;5071727;28;20404;-65
2022/11/25 04:13:29;;;;;;;9.88;3.47;;;8.40;99.90;;;;;;5071189;28;20047;-66
2022/11/25 04:15:55;;;;;;;15.50;3.03;;;8.40;99.90;;;;;;5069200;28;20125;-65
2022/11/25 04:18:20;;;;;;;13.18;3.38;;;8.40;99.90;;;;;;5071563;28;20080;-66
2022/11/25 04:20:46;;;;;;;11.65;3.42;;;8.50;99.90;;;;;;5071494;28;20044;-65
2022/11/25 04:23:12;;;;;;;20.85;4.07;;;8.40;99.90;;;;;;5053234;28;20044;-66
2022/11/25 04:25:38;;;;;;;8.93;3.35;;;8.40;99.90;;;;;;5070500;28;20048;-65
2022/11/25 04:28:04;;;;;;;6.80;3.25;;;8.50;99.90;;;;;;5071063;28;20555;-66
2022/11/25 04:30:30;;;;;;;12.52;3.50;;;8.50;99.90;;;;;;5071421;28;20032;-66
2022/11/25 04:32:55;;;;;;;12.52;3.80;;;8.50;99.90;;;;;;5071385;28;20078;-65
2022/11/25 04:35:21;;;;;;;9.02;3.10;;;8.50;99.90;;;;;;5070053;28;20044;-66
2022/11/25 04:37:47;;;;;;;11.30;3.65;;;8.50;99.90;;;;;;5070071;28;20048;-66
2022/11/25 04:40:13;;;;;;;9.20;3.60;;;8.50;99.90;;;;;;5071408;28;20142;-65
2022/11/25 04:42:38;;;;;;;11.25;3.78;;;8.60;99.90;;;;;;5070711;28;20040;-66
2022/11/25 04:45:12;;;;;;;13.98;3.83;;;8.60;99.90;;;;;;5070231;28;20080;-66
2022/11/25 04:47:38;;;;;;;13.85;4.13;;;8.60;99.90;;;;;;5069631;28;20082;-66
2022/11/25 04:50:06;;;;;;;14.15;3.30;;;8.50;99.90;;;;;;5071212;28;20086;-65
2022/11/25 04:52:32;;;;;;;8.30;3.92;;;8.60;99.90;;;;;;5069670;28;20087;-66
2022/11/25 04:54:58;;;;;;;13.68;3.30;;;8.60;99.90;;;;;;5070172;28;20040;-65
2022/11/25 04:57:23;;;;;;;10.57;3.72;;;8.50;99.90;;;;;;5071139;28;20113;-66
2022/11/25 04:59:49;;;;;;;8.07;3.92;;;8.60;99.90;;;;;;5070708;28;20040;-66
2022/11/25 05:02:27;;;;;;;15.73;3.78;;;8.50;99.90;;;;;;5070735;28;20076;-65
2022/11/25 05:04:54;;;;;;;15.00;4.00;;;8.50;99.90;;;;;;5069851;28;20076;-65
2022/11/25 05:07:21;;;;;;;12.70;3.72;;;8.50;99.90;;;;;;5070658;28;20489;-65
2022/11/25 05:09:47;;;;;;;13.77;4.75;;;8.60;99.90;;;;;;5070455;28;20078;-65
2022/11/25 05:12:17;;;;;;;12.38;4.53;;;8.50;99.90;;;;;;5070762;28;20044;-64
2022/11/25 05:14:43;;;;;;;11.10;4.10;;;8.50;99.90;;;;;;5069859;28;20040;-65
2022/11/25 05:17:12;;;;;;;12.75;4.22;;;8.50;99.90;;;;;;5052904;28;20055;-65
2022/11/25 05:19:38;;;;;;;10.65;3.78;;;8.50;99.90;;;;;;5070780;28;20037;-65
2022/11/25 05:22:04;;;;;;;14.23;3.95;;;8.60;99.90;;;;;;5070171;28;20098;-65
2022/11/25 05:24:29;;;;;;;11.00;3.92;;;8.50;99.90;;;;;;5069870;28;20044;-64
2022/11/25 05:26:55;;;;;;;18.25;4.47;;;8.50;99.90;;;;;;5070703;28;20440;-65
2022/11/25 05:29:20;;;;;;;19.65;4.07;;;8.50;99.90;;;;;;5070800;28;20050;-65
2022/11/25 05:31:46;;;;;;;17.42;4.32;;;8.50;99.90;;;;;;5070402;28;20404;-65
2022/11/25 05:34:11;;;;;;;14.38;4.05;;;8.50;99.90;;;;;;5069710;28;20044;-65
2022/11/25 05:36:37;;;;;;;10.88;4.05;;;8.50;99.90;;;;;;5070311;28;20514;-65
2022/11/25 05:39:03;;;;;;;12.50;3.63;;;8.50;99.90;;;;;;5070673;28;20040;-65
2022/11/25 05:41:28;;;;;;;13.35;4.72;;;8.50;99.90;;;;;;5070278;28;20048;-65
2022/11/25 05:43:54;;;;;;;12.82;4.18;;;8.50;99.90;;;;;;5069867;28;20128;-65
2022/11/25 05:46:20;;;;;;;11.98;4.15;;;8.50;99.90;;;;;;5070619;28;20064;-64
2022/11/25 05:48:45;;;;;;;10.82;4.53;;;8.50;99.90;;;;;;5070664;28;20033;-65
2022/11/25 05:51:11;;;;;;;13.38;4.32;;;8.50;99.90;;;;;;5074199;28;20134;-65
2022/11/25 05:53:36;;;;;;;8.25;4.07;;;8.40;99.90;;;;;;5074151;28;20485;-65
2022/11/25 05:56:05;;;;;;;17.70;4.78;;;8.50;99.90;;;;;;5072056;28;20043;-64
2022/11/25 05:58:31;;;;;;;13.80;4.95;;;8.40;99.90;;;;;;5073957;28;20036;-65
2022/11/25 06:00:57;;;;;;;12.75;5.22;;;8.40;99.90;;;;;;5074098;28;20062;-65
2022/11/25 06:03:24;;;;;;;11.80;4.45;;;8.40;99.90;;;;;;5073745;28;20480;-65
2022/11/25 06:05:49;;;;;;;7.85;4.38;;;8.50;99.90;;;;;;5073275;28;20040;-65
2022/11/25 06:08:15;;;;;;;15.30;4.72;;;8.50;99.90;;;;;;5073811;28;20550;-65
2022/11/25 06:10:41;;;;;;;15.15;5.15;;;8.50;99.90;;;;;;5073703;28;20512;-65
2022/11/25 06:13:08;;;;;;;14.45;4.20;;;8.50;99.90;;;;;;5073887;28;20115;-65
2022/11/25 06:15:34;;;;;;;7.65;4.22;;;8.50;99.90;;;;;;5072914;28;20037;-67
2022/11/25 06:17:59;;;;;;;12.77;4.65;;;8.50;99.90;;;;;;5072394;28;20508;-65
2022/11/25 06:20:26;;;;;;;13.30;4.53;;;8.50;99.90;;;;;;5072429;28;20087;-64
2022/11/25 06:22:52;;;;;;;13.10;4.25;;;8.50;99.90;;;;;;5073862;28;20124;-65
2022/11/25 06:25:18;;;;;;;8.45;4.20;;;8.50;99.90;;;;;;5072887;28;20044;-65
2022/11/25 06:27:43;;;;;;;11.82;4.90;;;8.50;99.90;;;;;;5073812;28;20041;-65
2022/11/25 06:30:11;;;;;;;16.20;4.90;;;8.50;99.90;;;;;;5073570;28;20048;-65
2022/11/25 06:32:37;;;;;;;13.95;4.80;;;8.50;99.90;;;;;;5073690;28;20111;-64
2022/11/25 06:35:03;;;;;;;7.80;4.25;;;8.50;99.90;;;;;;5072755;28;20147;-64
2022/11/25 06:37:28;;;;;;;12.57;4.68;;;8.50;99.90;;;;;;5073559;28;20489;-65
2022/11/25 06:39:54;;;;;;;10.48;4.72;;;8.50;99.90;;;;;;5073538;28;20043;-65
2022/11/25 06:42:19;;;;;;;11.02;4.45;;;8.50;99.90;;;;;;5073318;28;20047;-64
2022/11/25 06:44:45;;;;;;;14.90;4.38;;;8.50;99.90;;;;;;5072428;28;20040;-64
2022/11/25 06:47:10;;;;;;;13.52;4.20;;;8.50;99.90;;;;;;5073241;28;20497;-65
2022/11/25 06:49:36;;;;;;;14.57;4.05;;;8.50;99.90;;;;;;5073300;28;20051;-65
2022/11/25 06:52:01;;;;;;;5.97;4.38;;;8.50;99.90;;;;;;5073210;28;20040;-65
2022/11/25 06:54:27;;;;;;;9.38;4.15;;;8.60;99.90;;;;;;5072198;28;20037;-65
2022/11/25 06:56:53;;;;;;;9.55;4.43;;;8.50;99.90;;;;;;5072992;28;20043;-65
2022/11/25 06:59:19;;;;;;;12.43;3.53;;;8.50;99.90;;;;;;5072756;28;20032;-65
2022/11/25 07:01:45;;;;;;;7.68;3.80;;;8.50;99.90;;;;;;5072685;28;20072;-64
2022/11/25 07:04:11;;;;;;;11.52;4.30;;;8.50;99.90;;;;;;5053823;28;20076;-65
2022/11/25 07:06:36;;;;;;;8.70;4.90;;;8.50;99.90;;;;;;5071341;28;20124;-65
2022/11/25 07:09:02;;;;;;;9.52;4.10;;;8.50;99.90;;;;;;5072841;28;20032;-65
2022/11/25 07:11:36;;;;;;;16.58;3.88;;;8.50;99.90;;;;;;5072888;28;20036;-65
2022/11/25 07:14:09;;;;;;;9.43;3.83;;;8.50;99.90;;;;;;5053762;28;20097;-64
2022/11/25 07:16:36;;;;;;;;;;;8.50;99.90;;;;;;5054580;28;20040;-64
2022/11/25 07:19:02;;;;;;;8.75;3.75;;;8.50;99.90;;;;;;5066601;28;19921;-63
2022/11/25 07:21:29;;;;;;;11.70;4.63;;;8.50;99.90;;;;;;5061773;28;20048;-63
2022/11/25 07:23:55;;;;;;;10.30;3.70;;;8.40;99.90;;;;;;5060902;28;20045;-64
2022/11/25 07:26:27;;;;;;;13.50;3.72;;;8.40;99.90;;;;;;5062636;28;20048;-65
2022/11/25 07:28:54;;;;;;;8.50;3.63;;;8.40;99.90;;;;;;5062843;28;20040;-65
2022/11/25 07:31:25;;;;;;;8.27;3.50;;;8.40;99.90;;;;;;5068655;28;20035;-64
2022/11/25 07:33:56;;;;;;;9.90;3.80;;;8.40;99.90;;;;;;5071378;28;20496;-64
2022/11/25 07:36:22;;;;;;;13.63;3.50;;;8.40;99.90;;;;;;5068487;28;20036;-64
2022/11/25 07:38:48;;;;;;;13.25;4.20;;;8.40;99.90;;;;;;5068346;28;20047;-63
2022/11/25 07:41:16;;;;;;;9.45;3.78;;;8.40;99.90;;;;;;5071299;28;20079;-65
2022/11/25 07:43:46;;;;;;;8.50;3.47;;;8.40;99.90;;;;;;5071519;28;20405;-64
2022/11/25 07:46:20;;;;;;;8.15;3.83;;;8.30;99.90;;;;;;5072020;28;20048;-65
2022/11/25 07:48:46;;;;;;;10.10;3.53;;;8.30;99.90;;;;;;5072291;28;20043;-64
2022/11/25 07:51:21;;;;;;;12.65;3.97;;;8.40;99.90;;;;;;5071956;28;20520;-64
2022/11/25 07:53:47;;;;;;;12.02;4.28;;;8.40;99.90;;;;;;5071384;28;20048;-64
2022/11/25 07:56:13;;;;;;;11.90;3.20;;;8.30;99.90;;;;;;5072074;28;20051;-64
2022/11/25 07:58:39;;;;;;;11.02;3.80;;;8.30;99.90;;;;;;5071734;28;20036;-65
2022/11/25 08:01:07;;;;;;;12.00;3.92;;;8.30;99.90;;;;;;5071994;28;20044;-64
2022/11/25 08:03:34;;;;;;;10.20;3.85;;;8.30;99.90;;;;;;5071392;28;20040;-64
2022/11/25 08:06:06;;;;;;;11.05;3.58;;;8.30;99.90;;;;;;5070632;28;20592;-64
2022/11/25 08:08:33;;;;;;;10.75;3.65;;;8.20;99.90;;;;;;5071883;28;20626;-64
2022/11/25 08:10:59;;;;;;;12.35;3.50;;;8.20;99.90;;;;;;5071784;28;20048;-64
2022/11/25 08:13:25;;;;;;;10.43;3.70;;;8.30;99.90;;;;;;5070884;28;20040;-64
2022/11/25 08:15:50;;;;;;;6.10;3.15;;;8.20;99.90;;;;;;5070974;28;20119;-63
2022/11/25 08:18:16;;;;;;;5.72;3.80;;;8.20;99.90;;;;;;5071342;28;20103;-65
2022/11/25 08:20:42;;;;;;;11.20;4.53;;;8.20;99.90;;;;;;5071530;28;20040;-64
2022/11/25 08:23:08;;;;;;;8.32;3.42;;;8.20;99.90;;;;;;5060359;28;20043;-65
2022/11/25 08:25:39;;;;;;;7.45;3.25;;;8.10;99.90;;;;;;5059200;28;20037;-64
2022/11/25 08:28:05;;;;;;;8.55;3.08;;;8.10;99.90;;;;;;5068879;28;20028;-68
2022/11/25 08:30:30;;;;;;;8.63;3.40;;;8.10;99.90;;;;;;5071367;28;20055;-67
2022/11/25 08:32:57;;;;;;;6.00;3.13;;;8.20;99.90;;;;;;5071419;28;20068;-66
2022/11/25 08:35:23;;;;;;;8.35;3.50;;;8.30;99.90;;;;;;5070431;28;20124;-67
2022/11/25 08:37:48;;;;;;;9.27;3.58;;;8.30;99.90;;;;;;5071104;28;20115;-64
2022/11/25 08:40:14;;;;;;;10.15;3.28;;;8.30;99.90;;;;;;5070783;28;20048;-64
2022/11/25 08:42:40;;;;;;;9.50;4.10;;;8.20;99.90;;;;;;5071106;28;20076;-64
2022/11/25 08:45:06;;;;;;;6.82;3.13;;;8.20;99.90;;;;;;5070138;28;20044;-64
2022/11/25 08:47:32;;;;;;;10.15;3.88;;;8.30;99.90;;;;;;5070667;28;20123;-64
2022/11/25 08:49:58;;;;;;;9.80;3.70;;;8.30;99.90;;;;;;5070376;28;20489;-63
2022/11/25 08:52:23;;;;;;;10.00;3.65;;;8.30;99.90;;;;;;5071001;28;20041;-63
2022/11/25 08:54:49;;;;;;;9.68;4.13;;;8.30;99.90;;;;;;5070129;28;20428;-65
2022/11/25 08:57:15;;;;;;;10.57;3.58;;;8.30;99.90;;;;;;5070932;28;20417;-64
2022/11/25 08:59:41;;;;;;;9.00;3.85;;;8.30;99.90;;;;;;5070711;28;20508;-64
2022/11/25 09:02:16;;;;;;;9.90;3.78;;;8.40;99.90;;;;;;5070697;28;20454;-64
2022/11/25 09:04:42;;;;;;;8.63;3.53;;;8.40;99.90;;;;;;5069944;28;20409;-64
2022/11/25 09:07:07;;;;;;;5.85;3.67;;;8.50;99.90;;;;;;5070223;28;20043;-64
2022/11/25 09:09:33;;;;;;;11.43;3.55;;;8.50;99.90;;;;;;5070703;28;20115;-64
2022/11/25 09:11:59;;;;;;;11.77;3.90;;;8.50;99.90;;;;;;5070646;28;20036;-64
2022/11/25 09:14:24;;;;;;;8.93;4.85;;;8.50;99.90;;;;;;5069960;28;20064;-63
2022/11/25 09:16:50;;;;;;;8.05;4.35;;;8.60;99.90;;;;;;5070649;28;20041;-64
2022/11/25 09:19:15;;;;;;;12.38;4.25;;;8.60;99.90;;;;;;5070658;28;20036;-64
2022/11/25 09:21:42;;;;;;;16.60;4.93;;;8.60;99.90;;;;;;5070846;28;20157;-64
2022/11/25 09:24:08;;;;;;;8.50;4.45;;;8.60;99.90;;;;;;5072505;28;20040;-63
2022/11/25 09:26:36;;;;;;;9.90;3.90;;;8.60;99.90;;;;;;5074996;28;20131;-64
2022/11/25 09:29:02;;;;;;;7.45;4.40;;;8.60;99.90;;;;;;5074660;28;20133;-64
2022/11/25 09:31:27;;;;;;;8.30;4.05;;;8.70;99.90;;;;;;5074797;28;20471;-64
2022/11/25 09:33:54;;;;;;;13.88;4.50;;;8.70;99.90;;;;;;5074007;28;20032;-63
2022/11/25 09:36:20;;;;;;;10.93;4.75;;;8.70;99.90;;;;;;5074525;28;20055;-64
2022/11/25 09:38:46;;;;;;;11.45;4.57;;;8.70;99.90;;;;;;5074699;28;20040;-64
2022/11/25 09:46:40;;;;;;;14.60;4.93;;;8.70;99.90;;;;;;5074664;28;20044;-64
2022/11/25 09:47:41;;;;;;;8.57;4.10;;;8.80;99.90;;;;;;5074372;28;20057;-64
2022/11/25 09:50:15;;;;;;;8.27;4.20;;;8.80;99.90;;;;;;5074241;28;20040;-64
2022/11/25 09:53:16;;;;;;;7.72;4.65;;;8.90;99.90;;;;;;5074337;28;20040;-64
2022/11/25 09:55:45;;;;;;;10.15;4.28;;;8.90;99.90;;;;;;5073288;28;20055;-64
2022/11/25 09:58:42;;;;;;;12.60;4.40;;;9.00;99.90;;;;;;5074280;28;20059;-65
2022/11/25 10:01:16;;;;;;;8.85;3.90;;;9.00;99.90;;;;;;5072689;28;20405;-64
2022/11/25 10:04:05;;;;;;;9.00;3.90;;;9.00;99.90;;;;;;5073647;28;20094;-63
2022/11/25 10:06:47;;;;;;;10.93;3.92;;;9.00;99.90;;;;;;5073821;28;20492;-65
2022/11/25 10:09:16;;;;;;;9.57;4.35;;;9.10;99.90;;;;;;5072762;28;20463;-64
2022/11/25 10:11:58;;;;;;;9.23;3.90;;;9.10;99.90;;;;;;5073638;28;20066;-65
2022/11/25 10:14:46;;;;;;;7.40;3.80;;;9.10;99.90;;;;;;5072051;28;20036;-64
2022/11/25 10:17:48;;;;;;;8.20;4.00;;;9.20;99.90;;;;;;5073477;28;20290;-64
2022/11/25 10:20:19;;;;;;;7.40;3.13;;;9.20;99.90;;;;;;5071969;28;20182;-64
2022/11/25 10:22:52;;;;;;;10.02;3.35;;;9.20;99.90;;;;;;5073591;28;20610;-64
2022/11/25 10:25:28;;;;;;;7.60;3.88;;;9.30;99.90;;;;;;5072823;28;20443;-66
2022/11/25 10:28:17;;;;;;;10.35;3.33;;;9.30;99.90;;;;;;5072267;28;20047;-64
2022/11/25 10:30:49;;;;;;;10.45;3.58;;;9.30;99.90;;;;;;5073545;28;20094;-66
2022/11/25 10:33:21;;;;;;;13.33;3.63;;;9.60;99.90;;;;;;5073655;28;20034;-66
2022/11/25 10:36:05;;;;;;;7.57;3.75;;;9.60;99.90;;;;;;5053706;28;20040;-66
2022/11/25 10:39:08;;;;;;;8.32;3.63;;;9.60;99.90;;;;;;5073693;28;20059;-66
2022/11/25 10:41:43;;;;;;;9.75;4.32;;;9.60;99.90;;;;;;5073611;28;20040;-64
2022/11/25 10:44:24;;;;;;;4.18;3.03;;;9.60;99.90;;;;;;5072465;28;20041;-66
2022/11/25 10:47:14;;;;;;;7.10;3.65;;;9.60;99.90;;;;;;5073582;28;20041;-64
2022/11/25 10:49:59;;;;;;;7.30;3.33;;;9.70;99.90;;;;;;5055891;28;20037;-64
2022/11/25 10:52:28;;;;;;;11.13;3.75;;;9.60;99.90;;;;;;5053104;28;20037;-65
2022/11/25 10:55:15;;;;;;;8.95;3.22;;;9.70;99.90;;;;;;5052249;28;20098;-64
2022/11/25 10:57:41;;;;;;;5.65;3.33;;;9.70;99.90;;;;;;5055709;28;20048;-64
2022/11/25 11:00:35;;;;;;;10.20;4.07;;;9.70;99.90;;;;;;5063150;28;20404;-65
2022/11/25 11:03:21;;;;;;;7.03;3.10;;;9.70;99.90;;;;;;5063730;28;20041;-65
2022/11/25 11:05:50;;;;;;;7.85;3.55;;;9.70;99.90;;;;;;5061551;28;20044;-65
2022/11/25 11:08:18;;;;;;;12.48;3.75;;;9.80;99.90;;;;;;5070074;28;20159;-65
2022/11/25 11:10:45;;;;;;;9.35;3.97;;;9.80;99.90;;;;;;5072972;28;20041;-65
2022/11/25 11:13:19;;;;;;;5.82;3.05;;;9.80;99.90;;;;;;5071405;28;20044;-64
2022/11/25 11:15:46;;;;;;;10.70;3.53;;;9.80;99.90;;;;;;5071771;28;20052;-65
2022/11/25 11:18:37;;;;;;;6.93;2.83;;;9.80;99.90;;;;;;5072924;28;20381;-64
2022/11/25 11:21:05;;;;;;;9.60;3.35;;;9.80;99.90;;;;;;5072820;28;20044;-64
2022/11/25 11:23:47;;;;;;;13.63;3.55;;;9.90;99.90;;;;;;5072780;28;20131;-64
2022/11/25 11:26:29;;;;;;;7.27;2.63;;;9.80;99.90;;;;;;5070608;28;20515;-64
2022/11/25 11:29:01;;;;;;;8.15;2.80;;;9.90;99.90;;;;;;5072464;28;20123;-65
2022/11/25 11:31:30;;;;;;;9.25;2.70;;;9.90;99.90;;;;;;5072289;28;20044;-64
2022/11/25 11:34:17;;;;;;;8.27;2.88;;;10.00;99.90;;;;;;5062723;28;20037;-66
2022/11/25 11:36:55;;;;;;;5.65;2.55;;;9.90;99.90;;;;;;5061271;28;20036;-65
2022/11/25 11:39:53;;;;;;;7.40;2.72;;;10.00;99.90;;;;;;5061989;28;20664;-65
2022/11/25 11:42:27;;;;;;;7.15;2.63;;;10.00;99.90;;;;;;5062329;28;20052;-66
2022/11/25 11:44:56;;;;;;;4.40;2.35;;;10.10;99.90;;;;;;5061910;28;20045;-67
2022/11/25 11:47:40;;;;;;;9.35;2.72;;;10.10;99.90;;;;;;5060793;28;20037;-66
2022/11/25 11:50:24;;;;;;;6.75;2.58;;;10.10;99.90;;;;;;5061357;28;20037;-66
2022/11/25 11:53:00;;;;;;;11.70;2.90;;;10.10;99.90;;;;;;5062056;28;20431;-66
2022/11/25 11:56:08;;;;;;;6.82;2.63;;;10.10;99.90;;;;;;5060593;28;20154;-66
2022/11/25 11:58:46;;;;;;;6.05;2.53;;;10.10;99.90;;;;;;5026846;28;20062;-66
2022/11/25 12:01:39;;;;;;;8.48;2.55;;;10.20;99.90;;;;;;5060890;28;20037;-66
2022/11/25 12:04:14;;;;;;;11.40;2.47;;;10.20;99.90;;;;;;5059360;28;20106;-66
2022/11/25 12:06:43;;;;;;;6.53;2.83;;;10.30;99.90;;;;;;5061698;28;20037;-67
2022/11/25 12:09:15;;;;;;;10.02;2.92;;;10.30;99.90;;;;;;5064305;28;20051;-66
2022/11/25 12:11:50;;;;;;;10.80;2.80;;;10.40;99.90;;;;;;5053544;28;20048;-66
2022/11/25 12:14:30;;;;;;;8.93;2.85;;;10.40;99.90;;;;;;5054173;28;20464;-66
2022/11/25 12:16:58;;;;;;;9.65;2.55;;;10.40;99.90;;;;;;5051482;28;20494;-66
2022/11/25 12:19:35;;;;;;;8.90;2.78;;;10.40;99.90;;;;;;5051372;28;20521;-70
2022/11/25 12:22:28;;;;;;;7.82;2.70;;;10.40;99.90;;;;;;5051345;28;20037;-67
2022/11/25 12:24:54;;;;;;;;;;;10.50;99.90;;;;;;5049353;28;20056;-67
2022/11/25 12:27:30;;;;;;;9.18;2.92;;;10.50;99.90;;;;;;5050251;28;19917;-67
2022/11/25 12:30:06;;;;;;;11.25;2.95;;;10.50;99.90;;;;;;5050087;28;20044;-66
2022/11/25 12:32:40;;;;;;;9.20;2.78;;;10.50;99.90;;;;;;5051615;28;20421;-66
2022/11/25 12:35:08;;;;;;;6.60;2.50;;;10.60;99.90;;;;;;5050382;28;20041;-66
2022/11/25 12:37:55;;;;;;;9.48;2.58;;;10.60;99.90;;;;;;5051417;28;20068;-66
2022/11/25 12:40:52;;;;;;;7.38;2.42;;;10.60;99.90;;;;;;5051276;28;20116;-67
2022/11/25 12:43:52;;;;;;;6.88;2.03;;;10.60;99.90;;;;;;5051095;28;20045;-66
2022/11/25 12:46:34;;;;;;;7.40;2.50;;;10.60;99.90;;;;;;5051132;28;20087;-66
2022/11/25 12:49:01;;;;;;;9.65;2.92;;;10.60;99.90;;;;;;5051375;28;20045;-66
2022/11/25 12:51:59;;;;;;;5.50;2.28;;;10.70;99.90;;;;;;5050978;28;20048;-66
2022/11/25 12:54:34;;;;;;;6.18;2.60;;;10.80;99.90;;;;;;5050022;28;20072;-68
2022/11/25 12:57:37;;;;;;;7.97;2.15;;;10.80;99.90;;;;;;5051013;28;20036;-67
2022/11/25 13:00:24;;;;;;;7.70;2.40;;;10.80;99.90;;;;;;5050667;28;20135;-67
2022/11/25 13:03:33;;;;;;;11.75;2.13;;;10.80;99.90;;;;;;5050844;28;20037;-68
2022/11/25 13:06:01;;;;;;;9.93;2.97;;;10.80;99.90;;;;;;5048299;28;20061;-68
2022/11/25 13:08:48;;;;;;;9.43;2.28;;;10.80;99.90;;;;;;5050796;28;20425;-67
2022/11/25 13:11:59;;;;;;;9.88;2.63;;;10.80;99.90;;;;;;5050582;28;20056;-67
2022/11/25 13:15:11;;;;;;;10.55;2.95;;;10.80;99.90;;;;;;5025843;28;20154;-67
2022/11/25 13:17:41;;;;;;;12.65;2.92;;;10.70;99.90;;;;;;5050708;28;20088;-67